Time;durP1;ratioP1;P1;durP2;ratioP2;P2;SDS_P1;SDS_P2;PMS_P1;PMS_P2;Temp;Humidity;BMP_temperature;BMP_pressure;BME280_temperature;BME280_humidity;BME280_pressure;Samples;Min_cycle;Max_cycle;Signal;HPM_P1;HPM_P2
2024/04/18 00:01:11;;;;;;;6.90;4.70;;;;;;;2.22;100.00;96887.91;6707008;26;20292;-57
2024/04/18 00:04:13;;;;;;;4.73;4.30;;;;;;;2.26;100.00;96885.66;6725439;26;20233;-54
2024/04/18 00:07:16;;;;;;;4.47;4.07;;;;;;;2.36;100.00;96883.38;6711469;26;20337;-56
2024/04/18 00:10:42;;;;;;;4.70;3.87;;;;;;;2.38;100.00;96880.56;6703419;26;20356;-57
2024/04/18 00:14:05;;;;;;;6.40;4.23;;;;;;;2.40;100.00;96879.31;6716968;26;20244;-55
2024/04/18 00:17:10;;;;;;;4.20;3.80;;;;;;;2.39;100.00;96882.19;6695161;26;20255;-56
2024/04/18 00:20:13;;;;;;;4.10;3.57;;;;;;;2.32;100.00;96864.63;6718184;26;20240;-55
2024/04/18 00:23:16;;;;;;;4.57;3.93;;;;;;;2.17;100.00;96877.22;6708892;26;20233;-57
2024/04/18 00:26:39;;;;;;;5.30;4.53;;;;;;;2.12;100.00;96884.91;6703765;26;21134;-57
2024/04/18 00:29:43;;;;;;;5.20;4.23;;;;;;;2.12;100.00;96884.91;6703913;26;20239;-56
2024/04/18 00:32:45;;;;;;;6.97;4.77;;;;;;;2.10;100.00;96881.69;6707188;26;20239;-54
2024/04/18 00:36:07;;;;;;;5.43;4.90;;;;;;;2.15;100.00;96878.44;6703174;26;20228;-57
2024/04/18 00:39:21;;;;;;;5.50;4.87;;;;;;;2.01;100.00;96873.22;6702364;26;20307;-55
2024/04/18 00:42:32;;;;;;;5.43;4.83;;;;;;;2.02;100.00;96881.91;6725526;26;20239;-55
2024/04/18 00:45:38;;;;;;;5.40;4.90;;;;;;;2.13;100.00;96873.38;6705729;26;20288;-57
2024/04/18 00:48:55;;;;;;;5.77;5.13;;;;;;;2.21;100.00;96875.75;6712484;26;20241;-56
2024/04/18 00:51:58;;;;;;;6.23;5.33;;;;;;;2.12;100.00;96874.41;6706647;26;20235;-57
2024/04/18 00:55:03;;;;;;;7.00;5.17;;;;;;;2.10;100.00;96875.63;6706033;26;20236;-57
2024/04/18 00:58:10;;;;;;;6.27;5.17;;;;;;;1.96;100.00;96882.72;6688971;26;20290;-55
2024/04/18 01:01:17;;;;;;;7.53;5.90;;;;;;;2.10;100.00;96889.56;6724785;26;20255;-55
2024/04/18 01:04:29;;;;;;;10.53;5.90;;;;;;;2.33;100.00;96886.44;6710887;26;20244;-55
2024/04/18 01:07:44;;;;;;;6.33;5.57;;;;;;;2.15;100.00;96889.75;6707345;26;20634;-56
2024/04/18 01:10:56;;;;;;;7.60;5.80;;;;;;;2.01;100.00;96898.69;6701125;26;20346;-56
2024/04/18 01:14:06;;;;;;;10.17;6.53;;;;;;;2.00;100.00;96897.06;6715741;26;20291;-55
2024/04/18 01:17:27;;;;;;;7.67;6.37;;;;;;;2.11;100.00;96903.50;6717291;26;20217;-55
2024/04/18 01:20:31;;;;;;;7.60;6.67;;;;;;;2.02;100.00;96897.66;6708128;26;20294;-52
2024/04/18 01:23:33;;;;;;;7.73;6.63;;;;;;;1.88;100.00;96896.91;6727537;26;20238;-56
2024/04/18 01:26:37;;;;;;;8.87;6.63;;;;;;;2.02;100.00;96895.03;6719821;26;20237;-54
2024/04/18 01:29:40;;;;;;;7.47;6.70;;;;;;;1.73;100.00;96893.72;6722180;26;20626;-57
2024/04/18 01:33:03;;;;;;;7.97;6.80;;;;;;;1.88;100.00;96898.72;6709480;26;20321;-53
2024/04/18 01:36:06;;;;;;;7.80;6.73;;;;;;;1.69;100.00;96895.94;6727697;26;20237;-55
2024/04/18 01:39:24;;;;;;;8.47;6.60;;;;;;;1.67;100.00;96890.06;6713601;26;20940;-54
2024/04/18 01:42:37;;;;;;;7.47;6.63;;;;;;;1.62;100.00;96905.63;6677509;26;20332;-58
2024/04/18 01:45:57;;;;;;;6.33;5.67;;;;;;;1.61;100.00;96903.22;6708617;26;20305;-57
2024/04/18 01:49:00;;;;;;;7.63;6.10;;;;;;;1.63;100.00;96907.25;6751286;26;21802;-54
2024/04/18 01:52:21;;;;;;;7.83;6.70;;;;;;;1.66;100.00;96906.81;6715592;26;20244;-55
2024/04/18 01:55:23;;;;;;;8.70;6.80;;;;;;;1.65;100.00;96909.66;6713063;26;20286;-57
2024/04/18 01:58:42;;;;;;;9.47;7.20;;;;;;;1.62;100.00;96908.25;6710183;26;20233;-57
2024/04/18 02:01:44;;;;;;;10.50;8.50;;;;;;;1.85;100.00;96902.56;6706391;26;20361;-55
2024/04/18 02:04:47;;;;;;;13.93;8.00;;;;;;;1.84;100.00;96900.16;6706563;26;20248;-54
2024/04/18 02:08:09;;;;;;;13.07;9.43;;;;;;;2.04;100.00;96893.81;6717817;26;20601;-56
2024/04/18 02:11:18;;;;;;;11.20;9.70;;;;;;;2.16;100.00;96903.69;6714455;26;20243;-55
2024/04/18 02:14:53;;;;;;;9.80;8.03;;;;;;;2.13;100.00;96904.13;6702364;26;20240;-58
2024/04/18 02:17:56;;;;;;;11.23;8.40;;;;;;;2.02;100.00;96911.63;6737110;26;20244;-57
2024/04/18 02:21:15;;;;;;;9.80;7.60;;;;;;;1.98;100.00;96914.88;6711794;26;20236;-55
2024/04/18 02:24:26;;;;;;;7.90;7.07;;;;;;;1.96;100.00;96914.25;6713049;26;20356;-53
2024/04/18 02:27:29;;;;;;;8.10;7.30;;;;;;;1.97;100.00;96911.44;6719967;26;20235;-57
2024/04/18 02:30:52;;;;;;;9.70;7.50;;;;;;;1.94;100.00;96905.78;6725419;26;20280;-54
2024/04/18 02:34:15;;;;;;;9.90;8.03;;;;;;;1.98;100.00;96907.78;6729024;26;20317;-57
2024/04/18 02:37:25;;;;;;;11.40;8.47;;;;;;;1.84;100.00;96887.81;6711583;26;20245;-57
2024/04/18 02:40:28;;;;;;;9.73;8.40;;;;;;;1.98;100.00;96907.78;6713054;26;20240;-54
2024/04/18 02:43:33;;;;;;;10.60;8.43;;;;;;;2.10;100.00;96907.16;6705905;26;20754;-56
2024/04/18 02:46:36;;;;;;;11.30;8.37;;;;;;;2.06;100.00;96906.75;6716445;26;20789;-58
2024/04/18 02:49:47;;;;;;;9.57;8.30;;;;;;;2.03;100.00;96910.59;6715143;26;20257;-56
2024/04/18 02:52:50;;;;;;;8.17;7.37;;;;;;;1.93;100.00;96909.44;6719647;26;20694;-56
2024/04/18 02:55:53;;;;;;;8.57;7.33;;;;;;;1.95;100.00;96910.00;6714631;26;20237;-58
2024/04/18 02:59:04;;;;;;;8.47;7.50;;;;;;;1.80;100.00;96887.41;6716530;26;20348;-55
2024/04/18 03:02:23;;;;;;;9.03;7.37;;;;;;;1.93;100.00;96907.59;6715849;26;20345;-57
2024/04/18 03:05:46;;;;;;;8.07;7.10;;;;;;;1.94;100.00;96903.16;6705752;26;20249;-56
2024/04/18 03:08:58;;;;;;;10.07;7.90;;;;;;;2.00;100.00;96911.00;6705367;26;20233;-60
2024/04/18 03:12:01;;;;;;;10.00;8.03;;;;;;;2.15;100.00;96913.38;6704438;26;20632;-56
2024/04/18 03:15:12;;;;;;;9.33;7.70;;;;;;;2.15;100.00;96917.84;6683968;26;21185;-57
2024/04/18 03:18:15;;;;;;;8.77;7.47;;;;;;;2.37;100.00;96915.75;6707041;26;20245;-56
2024/04/18 03:21:18;;;;;;;7.73;6.93;;;;;;;2.31;100.00;96914.75;6705162;26;20232;-54
2024/04/18 03:24:22;;;;;;;8.40;7.53;;;;;;;2.32;100.00;96919.81;6723805;26;20311;-56
2024/04/18 03:27:25;;;;;;;7.50;6.70;;;;;;;2.24;100.00;96917.41;6719539;26;20283;-57
2024/04/18 03:30:27;;;;;;;7.93;6.73;;;;;;;2.21;100.00;96919.63;6710262;26;20346;-60
2024/04/18 03:33:49;;;;;;;7.80;6.50;;;;;;;2.17;100.00;96921.88;6710068;26;20608;-57
2024/04/18 03:36:52;;;;;;;9.27;7.27;;;;;;;2.35;100.00;96923.81;6705876;26;20231;-57
2024/04/18 03:40:05;;;;;;;9.73;7.97;;;;;;;2.48;100.00;96925.59;6755706;26;20364;-57
2024/04/18 03:43:08;;;;;;;7.73;6.97;;;;;;;2.48;100.00;96926.41;6712134;26;20242;-57
2024/04/18 03:46:10;;;;;;;8.03;7.23;;;;;;;2.45;100.00;96924.19;6710928;26;20238;-57
2024/04/18 03:49:32;;;;;;;7.23;6.53;;;;;;;2.29;100.00;96930.72;6718362;26;20248;-57
2024/04/18 03:52:35;;;;;;;6.87;6.17;;;;;;;2.20;100.00;96925.91;6724443;26;20295;-56
2024/04/18 03:55:56;;;;;;;8.00;7.20;;;;;;;2.51;100.00;96933.06;6710161;26;20225;-56
2024/04/18 03:58:59;;;;;;;7.60;6.90;;;;;;;2.37;100.00;96934.16;6719290;26;20225;-57
2024/04/18 04:02:01;;;;;;;7.30;6.60;;;;;;;2.44;100.00;96933.09;6711148;26;20278;-55
2024/04/18 04:05:04;;;;;;;7.50;6.63;;;;;;;2.43;100.00;96930.69;6710383;26;20236;-56
2024/04/18 04:08:07;;;;;;;7.27;6.43;;;;;;;2.33;100.00;96931.94;6673244;26;20279;-57
2024/04/18 04:11:16;;;;;;;9.70;6.40;;;;;;;2.30;100.00;96932.34;6711071;26;20236;-56
2024/04/18 04:14:19;;;;;;;7.67;5.63;;;;;;;2.19;100.00;96929.56;6723394;26;20237;-56
2024/04/18 04:17:30;;;;;;;6.73;6.03;;;;;;;2.27;100.00;96955.63;6721247;26;20287;-56
2024/04/18 04:20:43;;;;;;;7.20;6.50;;;;;;;2.44;100.00;96951.50;6704824;26;20242;-53
2024/04/18 04:23:45;;;;;;;7.17;6.47;;;;;;;2.45;100.00;96963.63;6713807;26;20234;-55
2024/04/18 04:26:48;;;;;;;9.23;6.27;;;;;;;2.69;100.00;96962.13;6716095;26;20242;-56
2024/04/18 04:29:51;;;;;;;7.90;6.70;;;;;;;2.62;100.00;96960.53;6701657;26;20329;-57
2024/04/18 04:32:54;;;;;;;7.27;6.37;;;;;;;2.72;100.00;96960.91;6703774;26;20233;-54
2024/04/18 04:36:06;;;;;;;7.63;6.63;;;;;;;2.62;100.00;96963.19;6703889;26;20585;-57
2024/04/18 04:39:08;;;;;;;7.40;6.50;;;;;;;2.79;100.00;96961.66;6717296;26;20347;-57
2024/04/18 04:42:14;;;;;;;9.03;7.53;;;;;;;2.88;100.00;96954.34;6704304;26;20298;-53
2024/04/18 04:45:17;;;;;;;7.70;6.90;;;;;;;2.91;100.00;96967.09;6703100;26;20233;-56
2024/04/18 04:48:38;;;;;;;6.57;5.87;;;;;;;2.99;100.00;96972.09;6703683;26;20607;-52
2024/04/18 04:51:47;;;;;;;7.70;6.03;;;;;;;3.01;100.00;96968.25;6719183;26;20797;-53
2024/04/18 04:55:09;;;;;;;8.00;6.77;;;;;;;3.10;100.00;96968.78;6701128;26;20241;-57
2024/04/18 04:58:12;;;;;;;6.40;5.77;;;;;;;3.13;100.00;96972.81;6713681;26;20240;-58
2024/04/18 05:01:14;;;;;;;6.00;5.37;;;;;;;3.40;100.00;96983.97;6720742;26;20286;-57
2024/04/18 05:04:17;;;;;;;6.47;5.73;;;;;;;3.46;100.00;96991.03;6704122;26;20241;-57
2024/04/18 05:07:20;;;;;;;6.37;5.73;;;;;;;3.41;100.00;96991.69;6702563;26;20233;-57
2024/04/18 05:10:23;;;;;;;6.73;5.23;;;;;;;3.39;100.00;96998.97;6702653;26;20284;-56
2024/04/18 05:13:25;;;;;;;7.53;6.83;;;;;;;3.15;100.00;96945.25;6708671;26;20275;-56
2024/04/18 05:16:48;;;;;;;6.47;5.80;;;;;;;3.50;100.00;97008.84;6704323;26;20245;-56
2024/04/18 05:19:51;;;;;;;6.13;5.13;;;;;;;3.52;100.00;96987.53;6702781;26;20357;-54
2024/04/18 05:23:09;;;;;;;5.70;5.10;;;;;;;3.52;100.00;97014.69;6722766;26;20248;-55
2024/04/18 05:26:12;;;;;;;4.90;4.40;;;;;;;3.72;100.00;97017.16;6711492;26;20292;-57
2024/04/18 05:32:35;;;;;;;6.57;5.20;;;;;;;3.68;100.00;97020.44;6699451;26;20728;-56
2024/04/18 05:35:44;;;;;;;5.97;4.40;;;;;;;3.92;100.00;97024.91;6728396;26;20240;-55
2024/04/18 05:38:46;;;;;;;8.17;5.10;;;;;;;3.76;100.00;97026.25;6717499;26;20283;-58
2024/04/18 05:41:49;;;;;;;5.10;4.50;;;;;;;3.77;100.00;97017.34;6700597;26;20788;-57
2024/04/18 05:45:05;;;;;;;4.60;4.13;;;;;;;3.91;100.00;97027.78;6677680;26;20250;-58
2024/04/18 05:48:07;;;;;;;4.77;4.37;;;;;;;4.05;100.00;97026.66;6711333;26;20322;-54
2024/04/18 05:51:10;;;;;;;5.10;4.50;;;;;;;3.95;100.00;97035.03;6711454;26;20244;-57
2024/04/18 05:54:31;;;;;;;4.80;4.20;;;;;;;4.16;100.00;97036.47;6704398;26;20234;-56
2024/04/18 05:57:40;;;;;;;4.80;4.30;;;;;;;4.29;100.00;97032.91;6699230;26;20238;-61
2024/04/18 06:01:04;;;;;;;4.30;3.97;;;;;;;4.45;100.00;97032.34;6701188;26;20237;-57
2024/04/18 06:04:07;;;;;;;4.80;4.27;;;;;;;4.48;100.00;97042.44;6673852;26;20253;-58
2024/04/18 06:07:10;;;;;;;6.30;4.07;;;;;;;4.58;100.00;97039.28;6706732;26;20345;-56
2024/04/18 06:10:12;;;;;;;5.40;4.50;;;;;;;4.50;100.00;97045.69;6713252;26;20233;-58
2024/04/18 06:13:15;;;;;;;4.93;4.53;;;;;;;4.61;100.00;97041.50;6705658;26;20325;-56
2024/04/18 06:16:18;;;;;;;8.50;5.07;;;;;;;4.63;100.00;97040.28;6724701;26;20321;-57
2024/04/18 06:19:23;;;;;;;4.63;4.23;;;;;;;4.69;100.00;97035.16;6702969;26;20249;-58
2024/04/18 06:22:30;;;;;;;4.53;3.93;;;;;;;4.81;100.00;97050.00;6707048;26;20233;-56
2024/04/18 06:25:51;;;;;;;4.70;4.30;;;;;;;5.16;100.00;97055.47;6712030;26;20237;-57
2024/04/18 06:28:54;;;;;;;5.83;4.07;;;;;;;5.12;99.37;97053.50;6730808;26;20281;-55
2024/04/18 06:32:13;;;;;;;5.37;4.27;;;;;;;5.38;97.47;97061.09;6719975;26;20240;-57
2024/04/18 06:35:15;;;;;;;4.07;3.70;;;;;;;5.39;95.47;97061.91;6738995;26;20362;-58
2024/04/18 06:38:18;;;;;;;3.73;3.40;;;;;;;5.33;97.00;97068.88;6709679;26;20292;-56
2024/04/18 06:41:21;;;;;;;4.20;3.80;;;;;;;5.48;95.96;97060.56;6710301;26;20238;-54
2024/04/18 06:44:23;;;;;;;3.50;3.20;;;;;;;5.69;91.04;97064.53;6722611;26;20227;-56
2024/04/18 06:47:26;;;;;;;3.60;3.00;;;;;;;5.48;90.15;97063.19;6708273;26;20284;-56
2024/04/18 06:50:44;;;;;;;3.60;3.27;;;;;;;5.71;87.95;97057.16;6707670;26;20243;-56
2024/04/18 06:53:46;;;;;;;3.30;3.00;;;;;;;5.62;90.24;97062.00;6725108;26;20285;-54
2024/04/18 06:56:49;;;;;;;3.37;2.93;;;;;;;5.87;89.10;97069.75;6711192;26;20243;-57
2024/04/18 06:59:52;;;;;;;3.03;2.50;;;;;;;5.87;87.32;97051.25;6710677;26;20765;-57
2024/04/18 07:02:54;;;;;;;4.23;2.90;;;;;;;5.93;85.49;97074.16;6708448;26;20289;-55
2024/04/18 07:06:16;;;;;;;3.07;2.67;;;;;;;5.79;84.49;97069.25;6705254;26;20230;-57
2024/04/18 07:09:36;;;;;;;5.83;2.90;;;;;;;5.66;86.68;97088.75;6704011;26;20235;-58
2024/04/18 07:12:51;;;;;;;2.93;2.60;;;;;;;5.63;84.35;97073.34;6703540;26;20238;-57
2024/04/18 07:15:55;;;;;;;3.03;2.57;;;;;;;5.74;83.39;97077.88;6712975;26;20577;-54
2024/04/18 07:19:16;;;;;;;2.63;2.43;;;;;;;5.86;88.63;97080.53;6692784;26;20742;-56
2024/04/18 07:22:28;;;;;;;3.23;2.93;;;;;;;6.17;87.64;97071.56;6682489;26;20243;-56
2024/04/18 07:25:31;;;;;;;2.80;2.53;;;;;;;6.40;81.28;97071.56;6741154;26;20285;-56
2024/04/18 07:28:34;;;;;;;3.23;2.33;;;;;;;6.51;76.97;97077.91;6713504;26;20319;-57
2024/04/18 07:31:37;;;;;;;2.70;2.50;;;;;;;6.57;77.78;97078.81;6693231;26;20258;-58
2024/04/18 07:34:48;;;;;;;1.87;1.77;;;;;;;6.59;76.96;97082.03;6715291;26;20234;-58
2024/04/18 07:37:51;;;;;;;3.83;2.47;;;;;;;6.38;78.14;97094.78;6711811;26;20239;-54
2024/04/18 07:40:54;;;;;;;2.67;2.47;;;;;;;6.05;79.54;97102.44;6674573;26;20244;-58
2024/04/18 07:43:57;;;;;;;2.40;1.83;;;;;;;5.91;81.63;97101.81;6705066;26;20236;-57
2024/04/18 07:46:59;;;;;;;2.60;2.10;;;;;;;5.98;79.34;97105.19;6724230;26;20829;-59
2024/04/18 07:50:02;;;;;;;3.00;2.63;;;;;;;5.91;79.15;97089.44;6701768;26;20278;-57
2024/04/18 07:53:04;;;;;;;3.63;2.47;;;;;;;6.03;78.81;97107.16;6678253;26;20286;-58
2024/04/18 07:56:11;;;;;;;2.50;2.30;;;;;;;5.89;79.85;97104.69;6712401;26;20764;-58
2024/04/18 07:59:15;;;;;;;3.13;2.47;;;;;;;5.96;82.22;97109.91;6716316;26;20319;-58
2024/04/18 08:02:19;;;;;;;3.00;2.70;;;;;;;6.08;78.70;97112.59;6711397;26;20237;-57
2024/04/18 08:05:25;;;;;;;3.63;2.87;;;;;;;6.18;79.01;97110.97;6707653;26;20283;-56
2024/04/18 08:08:31;;;;;;;2.77;2.40;;;;;;;6.38;78.87;97110.66;6705097;26;20348;-55
2024/04/18 08:11:38;;;;;;;2.87;2.67;;;;;;;6.59;77.15;97111.13;6679317;26;20246;-56
2024/04/18 08:15:02;;;;;;;2.60;2.40;;;;;;;6.73;79.18;97108.03;6673425;26;20241;-55
2024/04/18 08:18:16;;;;;;;4.57;2.00;;;;;;;7.01;73.46;97114.44;6668090;26;20286;-59
2024/04/18 08:21:18;;;;;;;2.27;1.90;;;;;;;7.11;71.06;97122.59;6630669;26;20237;-58
2024/04/18 08:24:33;;;;;;;2.00;1.80;;;;;;;7.00;67.56;97112.84;6629615;26;20236;-59
2024/04/18 08:27:42;;;;;;;1.97;1.77;;;;;;;7.02;69.52;97116.06;6617751;26;20254;-58
2024/04/18 08:30:45;;;;;;;2.43;1.80;;;;;;;6.95;68.07;97120.69;6671349;26;20238;-56
2024/04/18 08:33:48;;;;;;;2.00;1.43;;;;;;;6.84;69.70;97118.84;6672170;26;20747;-57
2024/04/18 08:37:03;;;;;;;5.07;1.80;;;;;;;7.02;73.91;97113.41;6689732;26;20230;-59
2024/04/18 08:40:07;;;;;;;3.50;1.87;;;;;;;7.09;68.28;97129.97;6677110;26;20284;-57
2024/04/18 08:43:10;;;;;;;3.20;1.97;;;;;;;7.01;66.81;97105.72;6661725;26;21042;-56
2024/04/18 08:46:15;;;;;;;2.73;2.10;;;;;;;7.30;68.66;97128.56;6659929;26;20292;-56
2024/04/18 08:49:22;;;;;;;3.83;2.27;;;;;;;7.55;62.79;97136.22;6661175;26;20281;-57
2024/04/18 08:52:27;;;;;;;1.97;1.87;;;;;;;7.49;63.50;97118.63;6664120;26;20301;-55
2024/04/18 08:55:35;;;;;;;2.43;1.83;;;;;;;7.42;62.41;97133.81;6667073;26;20551;-57
2024/04/18 08:58:37;;;;;;;2.33;2.00;;;;;;;7.75;61.23;97136.59;6625286;26;20242;-57
2024/04/18 09:01:41;;;;;;;2.30;1.70;;;;;;;7.80;63.01;97133.25;6660706;26;20235;-55
2024/04/18 09:04:45;;;;;;;2.70;1.87;;;;;;;7.90;60.92;97137.91;6659358;26;20327;-54
2024/04/18 09:07:47;;;;;;;2.33;1.90;;;;;;;8.14;65.37;97128.81;6663839;26;20239;-54
2024/04/18 09:10:52;;;;;;;1.60;1.50;;;;;;;8.26;60.92;97142.00;6668245;26;20363;-57
2024/04/18 09:13:54;;;;;;;1.73;1.43;;;;;;;7.93;58.29;97138.25;6698885;26;20240;-55
2024/04/18 09:16:57;;;;;;;2.50;1.80;;;;;;;7.86;62.07;97142.88;6729111;26;20277;-58
2024/04/18 09:19:59;;;;;;;3.13;1.80;;;;;;;7.84;60.89;97138.88;6702227;26;20283;-58
2024/04/18 09:23:02;;;;;;;4.57;1.80;;;;;;;7.89;63.33;97145.06;6699780;26;20225;-57
2024/04/18 09:26:05;;;;;;;1.73;1.40;;;;;;;7.88;62.17;97148.78;6704993;26;20283;-58
2024/04/18 09:29:07;;;;;;;3.70;2.23;;;;;;;7.44;61.42;97155.63;6702942;26;20291;-56
2024/04/18 09:32:14;;;;;;;1.97;1.50;;;;;;;7.63;59.59;97145.63;6703968;26;20280;-57
2024/04/18 09:35:17;;;;;;;1.40;1.30;;;;;;;7.62;62.15;97139.53;6715813;26;20290;-56
2024/04/18 09:38:22;;;;;;;1.77;1.53;;;;;;;7.70;59.31;97155.06;6706525;26;20233;-57
2024/04/18 09:41:30;;;;;;;1.70;1.33;;;;;;;7.74;61.61;97148.25;6711478;26;20292;-56
2024/04/18 09:44:36;;;;;;;1.50;1.40;;;;;;;7.89;57.18;97160.19;6718563;26;20783;-58
2024/04/18 09:47:39;;;;;;;1.73;1.50;;;;;;;7.90;55.89;97165.25;6718954;26;20237;-56
2024/04/18 09:50:44;;;;;;;2.90;1.40;;;;;;;7.95;56.07;97162.69;6718462;26;20231;-57
2024/04/18 09:53:47;;;;;;;3.47;1.60;;;;;;;7.85;56.01;97143.94;6706718;26;20236;-56
2024/04/18 09:56:51;;;;;;;2.23;1.23;;;;;;;8.04;58.14;97160.47;6669549;26;20280;-54
2024/04/18 09:59:54;;;;;;;1.30;1.20;;;;;;;8.21;57.93;97152.53;6704639;26;20245;-58
2024/04/18 10:02:58;;;;;;;1.70;1.43;;;;;;;8.33;63.15;97142.66;6710064;26;20279;-55
2024/04/18 10:06:06;;;;;;;4.53;1.70;;;;;;;8.58;58.47;97144.16;6712843;26;20344;-56
2024/04/18 10:09:12;;;;;;;2.43;1.53;;;;;;;8.60;56.20;97118.16;6701520;26;20233;-55
2024/04/18 10:12:14;;;;;;;1.93;1.73;;;;;;;8.85;56.94;97147.72;6664808;26;20866;-57
2024/04/18 10:15:18;;;;;;;1.80;1.40;;;;;;;8.78;54.11;97142.59;6713676;26;20280;-57
2024/04/18 10:18:21;;;;;;;2.20;1.47;;;;;;;8.28;54.54;97084.19;6713440;26;20299;-56
2024/04/18 10:21:26;;;;;;;2.97;1.60;;;;;;;8.71;53.40;97125.19;6708597;26;20281;-58
2024/04/18 10:24:49;;;;;;;4.27;1.50;;;;;;;9.02;59.52;97131.78;6722515;26;20237;-54
2024/04/18 10:27:52;;;;;;;3.17;1.40;;;;;;;9.32;53.09;97130.56;6716397;26;20602;-58
2024/04/18 10:31:01;;;;;;;1.20;1.10;;;;;;;9.00;50.18;97137.31;6711003;26;20302;-58
2024/04/18 10:34:04;;;;;;;2.13;1.60;;;;;;;8.88;46.90;97126.00;6707394;26;20234;-55
2024/04/18 10:37:07;;;;;;;2.87;1.60;;;;;;;9.05;49.46;97139.25;6725605;26;20349;-58
2024/04/18 10:40:15;;;;;;;2.53;1.50;;;;;;;9.05;53.37;97132.06;6721683;26;20284;-53
2024/04/18 10:43:17;;;;;;;1.40;1.20;;;;;;;9.19;50.35;97134.38;6707862;26;20340;-54
2024/04/18 10:46:22;;;;;;;2.43;1.60;;;;;;;8.90;49.84;97139.81;6725259;26;20284;-55
2024/04/18 10:49:25;;;;;;;1.60;1.50;;;;;;;8.73;52.02;97137.22;6724551;26;20346;-57
2024/04/18 10:52:28;;;;;;;1.77;1.33;;;;;;;8.45;50.90;97140.75;6718378;26;20324;-57
2024/04/18 10:55:32;;;;;;;2.00;1.60;;;;;;;8.17;52.57;97146.88;6721234;26;20286;-56
2024/04/18 10:58:36;;;;;;;2.67;1.63;;;;;;;7.88;55.55;97154.09;6704442;26;20237;-58
2024/04/18 11:01:39;;;;;;;2.20;2.00;;;;;;;7.73;57.84;97156.41;6723043;26;20354;-58
2024/04/18 11:04:42;;;;;;;3.13;1.87;;;;;;;7.97;58.29;97160.59;6708519;26;20236;-57
2024/04/18 11:07:49;;;;;;;2.47;2.27;;;;;;;7.93;60.14;97158.66;6720440;26;20243;-57
2024/04/18 11:10:52;;;;;;;3.50;2.70;;;;;;;7.90;61.29;97157.28;6703251;26;20280;-55
2024/04/18 11:13:55;;;;;;;4.90;2.57;;;;;;;7.76;61.54;97154.09;6733539;26;20239;-57
2024/04/18 11:17:00;;;;;;;2.73;2.53;;;;;;;7.75;63.51;97160.47;6707620;26;20292;-58
2024/04/18 11:20:04;;;;;;;2.13;1.93;;;;;;;7.66;63.64;97174.31;6713713;26;20241;-58
2024/04/18 11:23:06;;;;;;;3.90;2.30;;;;;;;7.64;65.97;97157.84;6706698;26;20794;-56
2024/04/18 11:26:19;;;;;;;5.00;2.67;;;;;;;7.56;66.28;97163.53;6716280;26;20241;-58
2024/04/18 11:29:28;;;;;;;3.27;2.97;;;;;;;7.80;66.64;97161.59;6712788;26;20228;-56
2024/04/18 11:32:31;;;;;;;3.27;2.97;;;;;;;7.75;67.97;97179.03;6719547;26;20287;-54
2024/04/18 11:35:34;;;;;;;3.67;3.37;;;;;;;8.02;66.54;97175.78;6705971;26;20249;-56
2024/04/18 11:38:43;;;;;;;3.10;2.80;;;;;;;8.15;67.68;97169.41;6680038;26;20240;-59
2024/04/18 11:41:46;;;;;;;3.13;2.90;;;;;;;8.21;67.17;97165.78;6710936;26;20229;-57
2024/04/18 11:44:48;;;;;;;2.93;2.63;;;;;;;8.51;64.61;97162.88;6708860;26;20278;-58
2024/04/18 11:47:56;;;;;;;3.13;2.83;;;;;;;8.77;64.51;97164.09;6711991;26;20237;-58
2024/04/18 11:51:00;;;;;;;3.07;2.27;;;;;;;8.78;57.04;97155.06;6704802;26;20252;-57
2024/04/18 11:54:02;;;;;;;3.40;2.43;;;;;;;8.91;52.51;97180.47;6717614;26;20241;-56
2024/04/18 11:57:10;;;;;;;3.50;2.20;;;;;;;8.61;55.91;97149.75;6713015;26;20283;-57
2024/04/18 12:00:13;;;;;;;3.57;1.80;;;;;;;8.68;57.83;97166.34;6707656;26;20232;-57
2024/04/18 12:03:52;;;;;;;3.80;2.33;;;;;;;8.85;53.36;97170.81;6709961;26;20763;-55
2024/04/18 12:07:12;;;;;;;2.60;2.40;;;;;;;8.89;52.65;97167.44;6738670;26;20323;-54
2024/04/18 12:10:15;;;;;;;3.87;2.47;;;;;;;9.16;53.49;97162.25;6723205;26;20231;-56
2024/04/18 12:13:36;;;;;;;2.50;2.03;;;;;;;9.23;60.06;97167.38;6707547;26;20241;-55
2024/04/18 12:16:56;;;;;;;2.20;1.83;;;;;;;9.25;56.86;97163.41;6704805;26;20241;-57
2024/04/18 12:20:18;;;;;;;3.27;2.17;;;;;;;9.53;54.17;97170.44;6704193;26;20285;-57
2024/04/18 12:23:22;;;;;;;2.33;2.13;;;;;;;9.49;52.21;97166.66;6712326;26;20245;-55
2024/04/18 12:26:38;;;;;;;4.93;2.73;;;;;;;9.37;55.13;97175.81;6705680;26;20284;-57
2024/04/18 12:29:46;;;;;;;2.77;2.37;;;;;;;9.10;54.36;97165.06;6713174;26;20583;-56
2024/04/18 12:32:49;;;;;;;2.77;2.43;;;;;;;9.02;55.58;97167.13;6725778;26;20232;-57
2024/04/18 12:35:59;;;;;;;3.20;2.90;;;;;;;8.92;54.99;97153.69;6712158;26;20248;-58
2024/04/18 12:39:01;;;;;;;3.43;2.90;;;;;;;8.90;56.64;97173.56;6714584;26;20296;-53
2024/04/18 12:42:07;;;;;;;3.37;2.77;;;;;;;8.80;61.27;97174.22;6708243;26;20283;-55
2024/04/18 12:45:09;;;;;;;3.27;2.73;;;;;;;8.85;59.47;97173.47;6721516;26;20284;-57
2024/04/18 12:48:12;;;;;;;3.40;2.43;;;;;;;8.63;58.80;97179.53;6713660;26;20240;-58
2024/04/18 12:51:15;;;;;;;2.70;2.50;;;;;;;8.58;58.77;97179.47;6713451;26;20237;-57
2024/04/18 12:54:17;;;;;;;3.87;2.40;;;;;;;8.49;58.54;97192.31;6705828;26;20233;-56
2024/04/18 12:57:23;;;;;;;2.83;2.60;;;;;;;8.30;61.14;97169.66;6698836;26;20312;-56
2024/04/18 13:00:37;;;;;;;3.70;2.83;;;;;;;8.26;61.35;97189.75;6715840;26;20290;-57
2024/04/18 13:03:41;;;;;;;3.70;2.77;;;;;;;8.39;62.57;97189.50;6720274;26;20263;-58
2024/04/18 13:07:03;;;;;;;2.80;2.60;;;;;;;8.37;58.30;97196.88;6715464;26;20998;-56
2024/04/18 13:10:06;;;;;;;3.40;2.73;;;;;;;8.57;56.81;97187.63;6703059;26;20308;-56
2024/04/18 13:13:17;;;;;;;3.07;2.80;;;;;;;8.60;58.91;97180.00;6726429;26;20264;-57
2024/04/18 13:16:41;;;;;;;5.03;3.30;;;;;;;8.53;58.99;97185.50;6729102;26;20296;-57
2024/04/18 13:19:43;;;;;;;2.77;2.53;;;;;;;8.53;64.95;97213.88;6721761;26;20303;-58
2024/04/18 13:22:48;;;;;;;3.77;2.40;;;;;;;8.52;63.37;97202.47;6707314;26;20240;-57
2024/04/18 13:25:52;;;;;;;4.37;2.40;;;;;;;8.24;64.29;97207.78;6717801;26;20763;-57
2024/04/18 13:28:55;;;;;;;2.53;2.33;;;;;;;8.63;65.45;97203.44;6711017;26;20275;-56
2024/04/18 13:31:58;;;;;;;2.50;2.30;;;;;;;8.83;63.64;97202.16;6718880;26;20383;-55
2024/04/18 13:35:01;;;;;;;3.40;2.20;;;;;;;8.96;62.89;97193.81;6707261;26;20279;-57
2024/04/18 13:38:05;;;;;;;3.17;2.57;;;;;;;8.98;60.92;97194.41;6670235;26;20241;-57
2024/04/18 13:41:27;;;;;;;2.63;2.30;;;;;;;8.40;62.86;97216.84;6708378;26;20245;-55
2024/04/18 13:44:30;;;;;;;3.93;2.97;;;;;;;7.43;77.57;97230.81;6716812;26;20234;-56
2024/04/18 13:47:52;;;;;;;4.57;3.17;;;;;;;6.75;90.88;97232.22;6708106;26;20340;-58
2024/04/18 13:51:15;;;;;;;3.77;3.20;;;;;;;6.38;90.95;97234.19;6704752;26;20237;-55
2024/04/18 13:54:22;;;;;;;3.50;3.20;;;;;;;6.36;95.54;97231.00;6718168;26;20662;-56
2024/04/18 13:57:27;;;;;;;6.30;3.53;;;;;;;6.43;96.23;97232.50;6710251;26;20237;-56
2024/04/18 14:00:50;;;;;;;3.40;2.90;;;;;;;6.60;94.06;97224.72;6710024;26;20228;-55
2024/04/18 14:04:02;;;;;;;4.93;3.60;;;;;;;6.60;93.11;97197.41;6700740;26;20911;-54
2024/04/18 14:07:13;;;;;;;4.43;3.50;;;;;;;6.71;90.08;97217.84;6717112;26;20255;-57
2024/04/18 14:10:16;;;;;;;4.10;3.47;;;;;;;6.90;90.68;97213.25;6709164;26;20229;-54
2024/04/18 14:13:37;;;;;;;4.17;3.20;;;;;;;7.01;86.58;97216.94;6709919;26;20241;-54
2024/04/18 14:20:44;;;;;;;4.83;3.03;;;;;;;7.39;83.46;97205.81;6728030;26;20239;-56
2024/04/18 14:23:46;;;;;;;3.27;2.97;;;;;;;7.70;88.19;97212.59;6717385;26;20237;-56
2024/04/18 14:26:49;;;;;;;3.13;2.83;;;;;;;7.90;80.08;97234.19;6709326;26;20650;-57
2024/04/18 14:29:57;;;;;;;2.90;2.57;;;;;;;7.70;72.91;97212.59;6706518;26;20318;-56
2024/04/18 14:33:09;;;;;;;4.70;3.10;;;;;;;7.84;80.77;97215.78;6731829;26;20347;-57
2024/04/18 14:36:12;;;;;;;5.17;2.60;;;;;;;7.82;78.61;97218.66;6719759;26;20237;-55
2024/04/18 14:39:15;;;;;;;3.10;2.80;;;;;;;7.88;78.36;97217.72;6712787;26;20824;-57
2024/04/18 14:42:17;;;;;;;5.67;3.20;;;;;;;8.17;80.89;97212.41;6711570;26;20237;-58
2024/04/18 14:45:20;;;;;;;5.90;2.93;;;;;;;8.02;74.41;97203.13;6710695;26;20279;-56
2024/04/18 14:48:23;;;;;;;3.27;2.73;;;;;;;7.99;80.10;97211.56;6711491;26;20232;-58
2024/04/18 14:51:25;;;;;;;3.10;2.80;;;;;;;8.13;77.75;97211.28;6726656;26;20244;-57
2024/04/18 14:54:28;;;;;;;5.50;2.80;;;;;;;8.15;78.44;97212.66;6728133;26;20266;-56
2024/04/18 14:57:30;;;;;;;2.87;2.50;;;;;;;8.10;80.21;97206.44;6702790;26;20279;-57